createdAt,value
2016-11-16T00:00:31.836Z,71.8
2016-11-16T00:01:42.102Z,71.98
2016-11-16T00:02:52.368Z,71.41
2016-11-16T00:04:02.042Z,71.6
2016-11-16T00:05:12.313Z,71.6
2016-11-16T00:06:22.594Z,71.32
2016-11-16T00:07:32.264Z,71.7
2016-11-16T00:08:42.882Z,71.7
2016-11-16T00:09:53.154Z,71.8
2016-11-16T00:11:03.131Z,71.8
2016-11-16T00:12:13.417Z,71.89
2016-11-16T00:13:23.384Z,71.89
2016-11-16T00:14:33.361Z,71.89
2016-11-16T00:15:43.343Z,71.7
2016-11-16T00:16:53.315Z,71.8
2016-11-16T00:18:03.277Z,71.7
2016-11-16T00:19:13.543Z,71.6
2016-11-16T00:20:23.824Z,71.7
2016-11-16T00:21:34.088Z,71.32
2016-11-16T00:22:44.383Z,71.41
2016-11-16T00:23:54.651Z,71.6
2016-11-16T00:25:04.972Z,71.7
2016-11-16T00:26:14.945Z,71.98
2016-11-16T00:27:24.922Z,71.41
2016-11-16T00:28:35.212Z,71.7
2016-11-16T00:29:44.864Z,71.7
2016-11-16T00:30:55.146Z,71.6
2016-11-16T00:32:05.414Z,71.98
2016-11-16T00:33:15.693Z,71.6
2016-11-16T00:34:25.662Z,71.6
2016-11-16T00:35:35.942Z,71.7
2016-11-16T00:36:45.912Z,71.98
2016-11-16T00:37:55.880Z,71.89
2016-11-16T00:39:05.852Z,71.8
2016-11-16T00:40:15.524Z,71.89
2016-11-16T00:41:25.190Z,72.08
2016-11-16T00:42:34.844Z,72.08
2016-11-16T00:43:44.815Z,71.7
2016-11-16T00:44:54.790Z,71.7
2016-11-16T00:46:04.748Z,71.51
2016-11-16T00:47:14.457Z,71.6
2016-11-16T00:48:24.417Z,71.98
2016-11-16T00:49:34.737Z,72.08
2016-11-16T00:50:45.020Z,71.6
2016-11-16T00:51:54.987Z,71.41
2016-11-16T00:53:04.964Z,71.6
2016-11-16T00:55:24.918Z,71.8
2016-11-16T00:56:35.190Z,71.32
2016-11-16T00:57:44.862Z,71.6
2016-11-16T00:58:55.147Z,71.89
2016-11-16T01:00:05.464Z,71.51
2016-11-16T01:01:15.116Z,71.41
2016-11-16T01:02:24.463Z,71.89
2016-11-16T01:03:34.424Z,71.7
2016-11-16T01:04:44.073Z,71.8
2016-11-16T01:05:54.368Z,71.32
2016-11-16T01:07:04.324Z,71.51
2016-11-16T01:08:14.604Z,71.51
2016-11-16T01:09:24.883Z,71.7
2016-11-16T01:10:34.849Z,71.64
2016-11-16T01:11:45.117Z,71.6
2016-11-16T01:12:55.392Z,71.7
2016-11-16T01:14:05.351Z,71.7
2016-11-16T01:15:15.332Z,72.08
2016-11-16T01:16:25.623Z,71.89
2016-11-16T01:17:35.575Z,71.98
2016-11-16T01:18:45.857Z,71.89
2016-11-16T01:19:55.818Z,71.8
2016-11-16T01:21:05.477Z,71.89
2016-11-16T01:22:15.431Z,71.8
2016-11-16T01:23:25.400Z,71.8
2016-11-16T01:24:35.359Z,71.89
2016-11-16T01:25:45.322Z,71.7
2016-11-16T01:26:55.623Z,71.98
2016-11-16T01:28:05.915Z,71.7
2016-11-16T01:29:16.221Z,71.7
2016-11-16T01:30:26.493Z,71.7
2016-11-16T01:31:36.456Z,71.8
2016-11-16T01:32:46.457Z,71.98
2016-11-16T01:33:56.439Z,71.98
2016-11-16T01:35:06.707Z,71.8
2016-11-16T01:36:16.972Z,71.8
2016-11-16T01:37:27.249Z,71.98
2016-11-16T01:38:37.520Z,71.89
2016-11-16T01:39:47.792Z,71.89
2016-11-16T01:40:57.790Z,72.08
2016-11-16T01:42:07.755Z,71.8
2016-11-16T01:43:18.028Z,71.89
2016-11-16T01:44:28.309Z,71.8
2016-11-16T01:45:38.572Z,71.98
2016-11-16T01:46:48.557Z,71.89
2016-11-16T01:47:58.823Z,71.98
2016-11-16T01:49:09.138Z,71.98
2016-11-16T01:50:19.403Z,71.8
2016-11-16T01:51:29.365Z,71.8
2016-11-16T01:52:39.636Z,72.08
2016-11-16T01:53:49.614Z,71.7
2016-11-16T01:54:59.280Z,71.7
2016-11-16T01:56:09.252Z,72.08
2016-11-16T01:57:19.218Z,71.7
2016-11-16T01:58:29.500Z,71.7
2016-11-16T01:59:39.471Z,71.8
2016-11-16T02:00:49.128Z,71.89
2016-11-16T02:01:59.125Z,71.98
2016-11-16T02:03:09.096Z,71.89
2016-11-16T02:04:19.067Z,71.8
2016-11-16T02:05:29.026Z,71.8
2016-11-16T02:06:38.996Z,71.7
2016-11-16T02:07:49.284Z,71.8
2016-11-16T02:08:59.550Z,71.7
2016-11-16T02:10:08.912Z,71.89
2016-11-16T02:11:18.565Z,71.7
2016-11-16T02:12:28.824Z,71.98
2016-11-16T02:13:38.481Z,71.8
2016-11-16T02:14:48.769Z,71.98
2016-11-16T02:15:58.740Z,71.89
2016-11-16T02:17:09.026Z,71.7
2016-11-16T02:18:18.993Z,71.7
2016-11-16T02:19:28.969Z,71.8
2016-11-16T02:20:38.623Z,72.08
2016-11-16T02:21:48.273Z,72.08
2016-11-16T02:22:58.541Z,71.7
2016-11-16T02:24:08.203Z,71.8
2016-11-16T02:25:18.176Z,72.08
2016-11-16T02:26:28.167Z,71.8
2016-11-16T02:27:38.434Z,72.08
2016-11-16T02:28:48.715Z,72.08
2016-11-16T02:29:58.986Z,71.7
2016-11-16T02:31:09.259Z,71.98
2016-11-16T02:32:19.529Z,72.08
2016-11-16T02:33:29.835Z,72.08
2016-11-16T02:34:40.118Z,71.89
2016-11-16T02:35:50.108Z,72.08
2016-11-16T02:37:00.375Z,71.89
2016-11-16T02:38:10.642Z,71.8
2016-11-16T02:39:20.917Z,72.08
2016-11-16T02:40:30.890Z,71.8
2016-11-16T02:41:41.162Z,71.8
2016-11-16T02:42:51.435Z,71.7
2016-11-16T02:44:00.469Z,71.7
2016-11-16T02:45:10.130Z,71.89
2016-11-16T02:46:20.405Z,71.8
2016-11-16T02:47:30.385Z,71.89
2016-11-16T02:48:40.350Z,71.8
2016-11-16T02:49:50.313Z,71.7
2016-11-16T02:51:00.591Z,71.8
2016-11-16T02:52:10.568Z,71.89
2016-11-16T02:53:20.848Z,72.08
2016-11-16T02:54:30.824Z,71.7
2016-11-16T02:55:40.165Z,71.98
2016-11-16T02:56:50.452Z,71.8
2016-11-16T02:58:00.423Z,71.89
2016-11-16T02:59:10.381Z,71.98
2016-11-16T03:00:20.639Z,72.08
2016-11-16T03:32:28.744Z,68.81
2016-11-16T03:33:39.030Z,69.28
2016-11-16T03:34:49.302Z,70.61
2016-11-16T03:35:59.565Z,71.65
2016-11-16T03:37:09.827Z,72.69
2016-11-16T03:38:20.141Z,72.78
2016-11-16T03:39:30.413Z,73.3
2016-11-16T03:40:40.672Z,73.49
2016-11-16T03:41:50.942Z,73.39
2016-11-16T03:43:01.217Z,73.39
2016-11-16T03:44:11.474Z,73.39
2016-11-16T03:45:21.761Z,73.8
2016-11-16T03:46:31.732Z,73.52
2016-11-16T03:47:41.699Z,73.71
2016-11-16T03:48:51.674Z,73.05
2016-11-16T03:50:01.942Z,73.05
2016-11-16T03:51:12.225Z,72.86
2016-11-16T03:52:22.501Z,72.61
2016-11-16T03:53:32.763Z,72.8
2016-11-16T03:54:42.734Z,73.08
2016-11-16T03:55:52.740Z,72.52
2016-11-16T03:57:02.707Z,72.04
2016-11-16T03:58:12.665Z,72.04
2016-11-16T03:59:22.947Z,72.04
2016-11-16T04:00:32.601Z,72.52
2016-11-16T04:01:42.567Z,72.55
2016-11-16T04:02:52.857Z,72.45
2016-11-16T04:04:02.827Z,72.36
2016-11-16T04:05:13.129Z,72.45
2016-11-16T04:06:22.787Z,72.55
2016-11-16T04:07:33.050Z,72.74
2016-11-16T04:08:43.009Z,72.74
2016-11-16T04:09:52.967Z,72.74
2016-11-16T04:11:03.243Z,72.74
2016-11-16T04:12:13.532Z,72.55
2016-11-16T04:13:23.809Z,72.84
2016-11-16T04:14:34.079Z,72.84
2016-11-16T04:15:44.046Z,72.74
2016-11-16T04:16:54.027Z,72.84
2016-11-16T04:18:04.295Z,72.84
2016-11-16T04:19:14.561Z,72.84
2016-11-16T04:20:24.523Z,72.74
2016-11-16T04:21:34.800Z,72.55
2016-11-16T04:22:44.773Z,72.08
2016-11-16T04:23:55.095Z,72.64
2016-11-16T04:25:05.380Z,71.89
2016-11-16T04:26:15.644Z,72.08
2016-11-16T04:27:25.918Z,72.08
2016-11-16T04:28:36.194Z,71.98
2016-11-16T04:29:46.476Z,71.89
2016-11-16T04:30:56.767Z,72.17
2016-11-16T04:32:07.045Z,72.08
2016-11-16T04:33:17.347Z,72.08
2016-11-16T04:34:27.309Z,72.17
2016-11-16T04:35:37.585Z,72.08
2016-11-16T04:36:47.541Z,72.08
2016-11-16T04:37:57.809Z,72.17
2016-11-16T04:39:07.782Z,72.17
2016-11-16T04:40:18.052Z,71.98
2016-11-16T04:41:28.024Z,71.89
2016-11-16T04:42:37.996Z,72.17
2016-11-16T04:43:48.263Z,72.36
2016-11-16T04:44:58.538Z,72.27
2016-11-16T04:46:08.506Z,72.17
2016-11-16T04:47:18.480Z,72.27
2016-11-16T04:48:28.756Z,72.17
2016-11-16T04:49:39.032Z,72.17
2016-11-16T04:50:49.323Z,72.27
2016-11-16T04:51:59.614Z,72.27
2016-11-16T04:53:09.592Z,72.17
2016-11-16T04:54:19.867Z,72.17
2016-11-16T04:55:29.841Z,72.27
2016-11-16T04:56:39.807Z,72.17
2016-11-16T04:57:50.107Z,71.98
2016-11-16T04:59:00.417Z,72.17
2016-11-16T05:00:10.701Z,72.17
2016-11-16T05:01:20.662Z,72.27
2016-11-16T05:02:30.339Z,72.36
2016-11-16T05:03:40.623Z,72.27
2016-11-16T05:04:50.608Z,72.17
2016-11-16T05:06:00.916Z,72.27
2016-11-16T05:07:11.192Z,72.17
2016-11-16T05:08:21.149Z,72.27
2016-11-16T05:09:31.441Z,72.08
2016-11-16T05:10:41.410Z,72.27
2016-11-16T05:11:51.685Z,72.17
2016-11-16T05:13:01.961Z,72.17
2016-11-16T05:14:11.927Z,72.17
2016-11-16T05:15:22.221Z,72.17
2016-11-16T05:16:32.492Z,72.36
2016-11-16T05:17:42.782Z,72.27
2016-11-16T05:18:52.455Z,72.27
2016-11-16T05:20:02.425Z,72.08
2016-11-16T05:21:11.786Z,72.17
2016-11-16T05:22:22.060Z,72.27
2016-11-16T05:23:32.347Z,72.27
2016-11-16T05:24:42.318Z,72.17
2016-11-16T05:25:52.596Z,72.17
2016-11-16T05:27:02.872Z,72.27
2016-11-16T05:28:12.523Z,72.17
2016-11-16T05:29:22.480Z,72.27
2016-11-16T05:30:32.782Z,72.36
2016-11-16T05:31:42.768Z,71.92
2016-11-16T05:32:53.038Z,72.02
2016-11-16T05:34:03.001Z,71.8
2016-11-16T05:35:13.278Z,71.83
2016-11-16T05:36:23.584Z,72.02
2016-11-16T05:37:33.861Z,72.17
2016-11-16T05:38:43.835Z,72.3
2016-11-16T05:39:54.121Z,72.59
2016-11-16T05:41:04.410Z,72.3
2016-11-16T05:42:14.369Z,72.3
2016-11-16T05:43:24.326Z,72.27
2016-11-16T05:44:34.295Z,72.27
2016-11-16T05:45:44.580Z,72.27
2016-11-16T05:46:54.852Z,72.17
2016-11-16T05:48:04.815Z,72.27
2016-11-16T05:49:15.099Z,72.21
2016-11-16T05:50:25.384Z,72.21
2016-11-16T05:51:35.661Z,72.08
2016-11-16T05:52:45.955Z,72.27
2016-11-16T05:53:56.231Z,72.27
2016-11-16T05:55:06.511Z,72.27
2016-11-16T05:56:16.806Z,72.27
2016-11-16T05:57:26.774Z,72.27
2016-11-16T05:58:37.050Z,72.17
2016-11-16T05:59:47.058Z,72.17
2016-11-16T06:00:57.032Z,72.27
2016-11-16T06:02:07.314Z,72.27
2016-11-16T06:03:17.592Z,72.17
2016-11-16T06:04:27.898Z,72.36
2016-11-16T06:05:38.196Z,72.45
2016-11-16T06:06:48.480Z,72.27
2016-11-16T06:07:58.758Z,72.17
2016-11-16T06:09:09.039Z,71.98
2016-11-16T06:10:19.312Z,72.17
2016-11-16T06:11:29.588Z,72.17
2016-11-16T06:12:39.545Z,72.27
2016-11-16T06:13:49.516Z,72.08
2016-11-16T06:14:59.808Z,72.08
2016-11-16T06:16:10.149Z,72.17
2016-11-16T06:17:20.115Z,72.27
2016-11-16T06:18:30.394Z,72.27
2016-11-16T06:19:40.380Z,72.27
2016-11-16T06:20:50.658Z,72.27
2016-11-16T06:22:00.926Z,72.45
2016-11-16T06:23:11.201Z,72.27
2016-11-16T06:24:21.484Z,72.27
2016-11-16T06:25:31.467Z,72.27
2016-11-16T06:26:41.742Z,72.17
2016-11-16T06:27:51.708Z,72.27
2016-11-16T06:29:01.978Z,72.08
2016-11-16T06:30:12.266Z,72.08
2016-11-16T06:31:22.555Z,72.36
2016-11-16T06:32:32.560Z,72.17
2016-11-16T06:33:42.597Z,72.27
2016-11-16T06:34:52.264Z,72.36
2016-11-16T06:36:02.537Z,72.36
2016-11-16T06:37:12.512Z,72.36
2016-11-16T06:38:22.176Z,72.36
2016-11-16T06:39:32.161Z,72.17
2016-11-16T06:40:42.147Z,71.98
2016-11-16T06:41:52.111Z,72.36
2016-11-16T06:43:02.381Z,71.7
2016-11-16T06:44:12.665Z,71.89
2016-11-16T06:45:22.635Z,72.02
2016-11-16T06:46:32.292Z,72.11
2016-11-16T06:47:42.261Z,71.92
2016-11-16T06:48:52.550Z,72.3
2016-11-16T06:50:02.831Z,71.83
2016-11-16T06:51:13.115Z,71.92
2016-11-16T06:52:23.422Z,72.11
2016-11-16T06:53:33.377Z,72.02
2016-11-16T06:54:43.344Z,71.73
2016-11-16T06:55:53.012Z,71.73
2016-11-16T06:57:03.297Z,72.3
2016-11-16T06:58:13.583Z,71.92
2016-11-16T06:59:23.558Z,71.83
2016-11-16T07:00:33.519Z,71.83
2016-11-16T07:01:43.814Z,72.02
2016-11-16T07:02:54.081Z,72.02
2016-11-16T07:04:04.377Z,72.02
2016-11-16T07:05:14.711Z,72.11
2016-11-16T07:06:24.682Z,71.83
2016-11-16T07:07:34.347Z,71.83
2016-11-16T07:08:44.625Z,71.83
2016-11-16T07:09:54.592Z,72.02
2016-11-16T07:11:04.303Z,71.83
2016-11-16T07:12:14.576Z,71.73
2016-11-16T07:13:24.861Z,72.02
2016-11-16T07:14:35.144Z,71.73
2016-11-16T07:15:44.806Z,72.02
2016-11-16T07:16:55.071Z,71.92
2016-11-16T07:18:05.047Z,71.73
2016-11-16T07:19:14.706Z,71.92
2016-11-16T07:20:24.683Z,72.02
2016-11-16T07:21:34.969Z,71.64
2016-11-16T07:22:45.246Z,71.92
2016-11-16T07:23:55.552Z,71.45
2016-11-16T07:25:05.531Z,71.73
2016-11-16T07:26:15.802Z,71.64
2016-11-16T07:27:26.101Z,71.64
2016-11-16T07:28:36.064Z,71.73
2016-11-16T07:29:46.377Z,71.64
2016-11-16T07:30:56.357Z,71.73
2016-11-16T07:32:06.369Z,71.73
2016-11-16T07:33:16.333Z,71.64
2016-11-16T07:34:26.618Z,71.58
2016-11-16T07:35:36.590Z,71.86
2016-11-16T07:36:46.892Z,71.67
2016-11-16T07:37:57.168Z,71.77
2016-11-16T07:39:07.469Z,71.67
2016-11-16T07:40:17.746Z,71.67
2016-11-16T07:41:28.018Z,71.39
2016-11-16T07:42:38.305Z,71.11
2016-11-16T07:43:48.594Z,71.39
2016-11-16T07:44:58.910Z,71.11
2016-11-16T07:46:09.180Z,71.39
2016-11-16T07:47:19.168Z,71.58
2016-11-16T07:48:29.125Z,71.11
2016-11-16T07:49:39.092Z,71.39
2016-11-16T07:50:49.391Z,71.58
2016-11-16T07:51:59.659Z,71.39
2016-11-16T07:53:09.933Z,71.39
2016-11-16T07:54:18.977Z,71.58
2016-11-16T07:55:29.268Z,71.39
2016-11-16T07:56:39.239Z,71.11
2016-11-16T07:57:49.210Z,71.67
2016-11-16T07:58:59.183Z,71.67
2016-11-16T08:00:08.845Z,71.77
2016-11-16T08:01:19.112Z,71.77
2016-11-16T08:02:29.093Z,71.96
2016-11-16T08:03:39.060Z,71.48
2016-11-16T08:04:48.733Z,71.48
2016-11-16T08:05:59.002Z,71.67
2016-11-16T08:07:08.656Z,71.67
2016-11-16T08:08:18.959Z,71.67
2016-11-16T08:09:29.194Z,72.25
2016-11-16T08:10:38.857Z,72.06
2016-11-16T08:11:48.517Z,72.15
2016-11-16T08:12:58.785Z,72.15
2016-11-16T08:14:09.060Z,72.15
2016-11-16T08:15:19.014Z,72.06
2016-11-16T08:16:29.314Z,71.96
2016-11-16T08:17:38.702Z,72.06
2016-11-16T08:18:48.982Z,72.15
2016-11-16T08:19:58.641Z,71.96
2016-11-16T08:21:08.924Z,72.06
2016-11-16T08:22:19.214Z,72.06
2016-11-16T08:23:29.198Z,72.06
2016-11-16T08:24:39.497Z,72.25
2016-11-16T08:25:49.777Z,71.86
2016-11-16T08:26:59.755Z,72.15
2016-11-16T08:28:09.748Z,71.48
2016-11-16T08:29:19.713Z,72.15
2016-11-16T08:30:29.064Z,72.15
2016-11-16T08:31:39.372Z,72.06
2016-11-16T08:32:49.663Z,72.06
2016-11-16T08:33:59.954Z,72.06
2016-11-16T08:35:09.926Z,72.15
2016-11-16T08:36:19.909Z,71.48
2016-11-16T08:37:29.885Z,71.96
2016-11-16T08:38:40.170Z,71.96
2016-11-16T08:39:50.480Z,71.86
2016-11-16T08:41:00.757Z,71.48
2016-11-16T08:42:10.453Z,70.73
2016-11-16T08:43:19.803Z,70.92
2016-11-16T08:44:29.806Z,70.54
2016-11-16T08:45:39.479Z,71.01
2016-11-16T08:46:48.838Z,71.67
2016-11-16T08:47:59.155Z,71.58
2016-11-16T08:49:09.124Z,71.67
2016-11-16T08:50:19.089Z,71.67
2016-11-16T08:51:29.365Z,71.39
2016-11-16T08:52:39.689Z,71.96
2016-11-16T08:53:49.969Z,71.48
2016-11-16T08:54:59.950Z,71.67
2016-11-16T08:56:10.229Z,71.04
2016-11-16T08:57:20.510Z,70.63
2016-11-16T08:58:30.511Z,70.95
2016-11-16T08:59:40.807Z,70.86
2016-11-16T09:00:50.804Z,71.11
2016-11-16T09:02:00.790Z,71.81
2016-11-16T09:03:10.442Z,71.43
2016-11-16T09:04:20.408Z,71.14
2016-11-16T09:05:30.711Z,71.86
2016-11-16T09:06:41.220Z,71.67
2016-11-16T09:07:50.898Z,71.67
2016-11-16T09:09:01.155Z,71.86
2016-11-16T09:10:11.426Z,71.33
2016-11-16T09:11:21.394Z,71.23
2016-11-16T09:12:31.052Z,71.52
2016-11-16T09:13:41.024Z,71.71
2016-11-16T09:14:51.026Z,71.04
2016-11-16T09:16:00.999Z,71.04
2016-11-16T09:17:11.271Z,70.95
2016-11-16T09:18:21.538Z,71.71
2016-11-16T09:19:31.815Z,71.71
2016-11-16T09:20:41.502Z,71.33
2016-11-16T09:21:51.477Z,70.95
2016-11-16T09:23:01.137Z,70.57
2016-11-16T09:24:10.802Z,70.86
2016-11-16T09:25:21.113Z,70.76
2016-11-16T09:26:31.105Z,70.86
2016-11-16T09:27:41.389Z,70.86
2016-11-16T09:28:51.080Z,70.67
2016-11-16T09:30:00.755Z,70.95
2016-11-16T09:31:11.090Z,71.33
2016-11-16T09:32:21.367Z,71.33
2016-11-16T09:33:31.366Z,71.52
2016-11-16T09:34:41.332Z,71.71
2016-11-16T09:35:51.313Z,71.43
2016-11-16T09:37:01.260Z,71.14
2016-11-16T09:38:10.947Z,71.04
2016-11-16T09:39:21.474Z,71.04
2016-11-16T09:40:31.481Z,71.23
2016-11-16T09:41:41.464Z,71.71
2016-11-16T09:42:51.434Z,71.33
2016-11-16T09:44:01.097Z,71.71
2016-11-16T09:45:10.757Z,70.57
2016-11-16T09:46:21.040Z,70.99
2016-11-16T09:47:31.011Z,70.42
2016-11-16T09:48:40.720Z,70.79
2016-11-16T09:49:51.004Z,70.79
2016-11-16T09:51:00.680Z,70.51
2016-11-16T09:52:10.959Z,70.79
2016-11-16T09:53:20.933Z,70.61
2016-11-16T09:54:30.907Z,70.51
2016-11-16T09:55:40.882Z,70.51
2016-11-16T09:56:50.853Z,70.7
2016-11-16T09:58:01.138Z,70.89
2016-11-16T09:59:11.167Z,70.99
2016-11-16T10:00:21.132Z,70.7
2016-11-16T10:01:31.106Z,70.99
2016-11-16T10:02:41.088Z,71.84
2016-11-16T10:03:51.123Z,71.75
2016-11-16T10:05:01.097Z,71.46
2016-11-16T10:06:11.079Z,71.75
2016-11-16T10:07:21.059Z,71.75
2016-11-16T10:08:30.722Z,71.56
2016-11-16T10:09:41.013Z,71.46
2016-11-16T10:10:51.305Z,71.46
2016-11-16T10:12:01.587Z,71.46
2016-11-16T10:13:11.549Z,71.46
2016-11-16T10:14:21.819Z,71.08
2016-11-16T10:15:31.915Z,71.43
2016-11-16T10:16:42.246Z,71.71
2016-11-16T10:17:52.220Z,71.9
2016-11-16T10:19:02.495Z,71.71
2016-11-16T10:20:12.164Z,71.27
2016-11-16T10:21:22.474Z,71.23
2016-11-16T10:22:32.460Z,71.18
2016-11-16T10:23:42.733Z,71.43
2016-11-16T10:24:53.019Z,71.46
2016-11-16T10:26:03.311Z,71.75
2016-11-16T10:27:13.279Z,71.27
2016-11-16T10:28:23.561Z,70.7
2016-11-16T10:29:33.536Z,70.79
2016-11-16T10:30:43.503Z,70.89
2016-11-16T10:31:53.514Z,70.61
2016-11-16T10:33:03.831Z,70.79
2016-11-16T10:34:13.496Z,70.89
2016-11-16T10:35:23.772Z,71.18
2016-11-16T10:36:34.046Z,71.75
2016-11-16T10:37:43.714Z,71.37
2016-11-16T10:38:53.992Z,71.75
2016-11-16T10:40:03.997Z,71.18
2016-11-16T10:41:14.293Z,70.79
2016-11-16T10:42:24.352Z,70.79
2016-11-16T10:43:34.335Z,70.61
2016-11-16T10:44:44.659Z,70.79
2016-11-16T10:45:54.968Z,71.08
2016-11-16T10:47:04.975Z,71.75
2016-11-16T10:48:15.258Z,71.27
2016-11-16T10:49:25.551Z,71.46
2016-11-16T10:50:35.869Z,71.08
2016-11-16T10:51:46.196Z,71.37
2016-11-16T10:52:56.211Z,71.37
2016-11-16T10:54:06.518Z,71.08
2016-11-16T10:55:16.823Z,71.37
2016-11-16T10:56:26.842Z,71.46
2016-11-16T10:57:37.147Z,71.66
2016-11-16T10:58:47.124Z,71.75
2016-11-16T10:59:57.091Z,71.46
2016-11-16T11:01:07.083Z,71.75
2016-11-16T11:02:17.369Z,71.75
2016-11-16T11:03:27.342Z,71.66
2016-11-16T11:04:37.616Z,71.75
2016-11-16T11:05:47.610Z,71.84
2016-11-16T11:06:57.660Z,72.03
2016-11-16T11:08:08.258Z,71.94
2016-11-16T11:09:18.262Z,71.84
2016-11-16T11:10:28.548Z,72.03
2016-11-16T11:11:38.835Z,71.94
2016-11-16T11:12:49.132Z,71.71
2016-11-16T11:13:59.138Z,71.84
2016-11-16T11:15:09.133Z,71.81
2016-11-16T11:16:19.104Z,71.52
2016-11-16T11:17:28.755Z,71.62
2016-11-16T11:18:38.413Z,71.81
2016-11-16T11:19:48.379Z,71.71
2016-11-16T11:20:57.740Z,71.62
2016-11-16T11:22:08.083Z,71.71
2016-11-16T11:23:18.075Z,71.84
2016-11-16T11:24:27.806Z,71.84
2016-11-16T11:25:37.792Z,71.27
2016-11-16T11:26:47.755Z,71.37
2016-11-16T11:27:57.722Z,71.14
2016-11-16T11:29:07.685Z,71.56
2016-11-16T11:30:17.685Z,71.94
2016-11-16T11:31:27.741Z,71.33
2016-11-16T11:32:37.094Z,71.27
2016-11-16T11:33:47.061Z,71.84
2016-11-16T11:34:57.336Z,70.7
2016-11-16T11:36:07.314Z,70.99
2016-11-16T11:37:17.592Z,70.89
2016-11-16T11:38:27.875Z,71.18
2016-11-16T11:39:37.528Z,71.08
2016-11-16T11:40:47.815Z,70.89
2016-11-16T11:41:57.777Z,70.89
2016-11-16T11:43:08.051Z,71.08
2016-11-16T11:44:18.029Z,70.7
2016-11-16T11:45:28.362Z,70.79
2016-11-16T11:46:38.633Z,71.27
2016-11-16T11:47:48.615Z,71.08
2016-11-16T11:48:58.917Z,70.79
2016-11-16T11:50:09.192Z,70.99
2016-11-16T11:51:19.185Z,71.08
2016-11-16T11:52:29.453Z,70.79
2016-11-16T11:53:39.719Z,71.08
2016-11-16T11:54:49.995Z,70.89
2016-11-16T11:55:59.967Z,71.18
2016-11-16T11:57:10.247Z,71.18
2016-11-16T11:58:20.521Z,70.99
2016-11-16T11:59:30.184Z,70.99
2016-11-16T12:00:40.164Z,71.08
2016-11-16T12:01:50.131Z,70.99
2016-11-16T12:02:59.793Z,71.27
2016-11-16T12:04:09.896Z,70.61
2016-11-16T12:05:20.261Z,70.99
2016-11-16T12:06:30.817Z,71.08
2016-11-16T12:07:40.796Z,70.89
2016-11-16T12:08:51.091Z,70.61
2016-11-16T12:10:01.397Z,71.66
2016-11-16T12:11:11.376Z,71.84
2016-11-16T12:12:21.349Z,71.84
2016-11-16T12:13:31.348Z,72
2016-11-16T12:14:41.316Z,71.81
2016-11-16T12:15:51.286Z,72.19
2016-11-16T12:17:00.943Z,72
2016-11-16T12:18:10.609Z,71.81
2016-11-16T12:19:20.604Z,71.46
2016-11-16T12:20:30.932Z,71.43
2016-11-16T12:21:40.946Z,71.84
2016-11-16T12:22:50.926Z,71.71
2016-11-16T12:24:01.200Z,71.46
2016-11-16T12:25:10.870Z,71.27
2016-11-16T12:26:20.847Z,71.46
2016-11-16T12:27:31.177Z,71.27
2016-11-16T12:28:41.185Z,71.27
2016-11-16T12:29:51.486Z,71.18
2016-11-16T12:31:01.763Z,71.46
2016-11-16T12:32:11.741Z,71.37
2016-11-16T12:33:22.047Z,71.75
2016-11-16T12:34:31.419Z,71.62
2016-11-16T12:35:41.082Z,71.46
2016-11-16T12:36:51.050Z,72.13
2016-11-16T12:38:01.023Z,71.84
2016-11-16T12:39:10.981Z,71.56
2016-11-16T12:40:20.958Z,71.37
2016-11-16T12:41:30.628Z,71.46
2016-11-16T12:42:40.376Z,71.46
2016-11-16T12:43:50.353Z,71.84
2016-11-16T12:45:00.650Z,71.46
2016-11-16T12:46:10.658Z,71.56
2016-11-16T12:47:20.629Z,71.46
2016-11-16T12:48:30.917Z,71.27
2016-11-16T12:49:41.205Z,71.94
2016-11-16T12:50:50.871Z,71.81
2016-11-16T12:52:00.833Z,71.62
2016-11-16T12:53:11.120Z,71.52
2016-11-16T12:54:21.092Z,71.81
2016-11-16T12:55:31.387Z,71.9
2016-11-16T12:56:41.364Z,71.81
2016-11-16T12:57:51.651Z,72.19
2016-11-16T12:59:01.937Z,72.19
2016-11-16T13:00:11.895Z,72.09
2016-11-16T13:01:22.169Z,72
2016-11-16T13:02:32.162Z,72.28
2016-11-16T13:03:41.830Z,72.28
2016-11-16T13:04:52.141Z,72.38
2016-11-16T13:06:02.462Z,72.38
2016-11-16T13:07:12.444Z,72.19
2016-11-16T13:08:22.741Z,72.34
2016-11-16T13:09:32.433Z,72.15
2016-11-16T13:10:42.409Z,72.53
2016-11-16T13:11:52.081Z,72.25
2016-11-16T13:13:02.413Z,72.25
2016-11-16T13:14:12.426Z,72.25
2016-11-16T13:15:22.710Z,72.34
2016-11-16T13:16:32.688Z,71.96
2016-11-16T13:17:42.659Z,72.34
2016-11-16T13:18:53.001Z,72.06
2016-11-16T13:20:03.229Z,71.96
2016-11-16T13:21:13.530Z,72.06
2016-11-16T13:22:23.506Z,71.86
2016-11-16T13:23:33.475Z,71.77
2016-11-16T13:24:43.430Z,71.67
2016-11-16T13:25:53.382Z,71.86
2016-11-16T13:27:03.338Z,71.77
2016-11-16T13:28:13.619Z,71.77
2016-11-16T13:29:23.901Z,72.25
2016-11-16T13:30:34.193Z,71.58
2016-11-16T13:31:44.159Z,71.58
2016-11-16T13:32:54.449Z,71.67
2016-11-16T13:34:04.439Z,72.15
2016-11-16T13:35:14.105Z,71.96
2016-11-16T13:36:24.415Z,71.77
2016-11-16T13:37:34.699Z,71.77
2016-11-16T13:38:45.011Z,72.53
2016-11-16T13:39:54.672Z,72.34
2016-11-16T13:41:04.944Z,72.25
2016-11-16T13:42:14.935Z,72.44
2016-11-16T13:43:24.907Z,72.44
2016-11-16T13:44:34.911Z,72.06
2016-11-16T13:45:44.591Z,72.63
2016-11-16T13:46:54.249Z,71.96
2016-11-16T13:48:04.524Z,72.34
2016-11-16T13:49:14.515Z,71.86
2016-11-16T13:50:24.776Z,72.06
2016-11-16T13:51:34.438Z,71.77
2016-11-16T13:52:44.414Z,71.67
2016-11-16T13:53:54.678Z,72.25
2016-11-16T13:55:04.024Z,72.25
2016-11-16T13:56:14.005Z,71.86
2016-11-16T13:57:24.333Z,72.44
2016-11-16T13:58:34.305Z,72.44
2016-11-16T13:59:44.583Z,72.25
2016-11-16T14:00:54.560Z,72.34
2016-11-16T14:02:04.839Z,72.15
2016-11-16T14:03:15.169Z,72.15
2016-11-16T14:04:24.823Z,72.34
2016-11-16T14:05:35.107Z,72.25
2016-11-16T14:06:45.411Z,72.34
2016-11-16T14:07:55.372Z,72.25
2016-11-16T14:09:05.338Z,72.25
2016-11-16T14:10:15.620Z,72.34
2016-11-16T14:11:25.595Z,72.44
2016-11-16T14:12:35.563Z,72.44
2016-11-16T14:13:45.534Z,72.34
2016-11-16T14:14:55.496Z,71.96
2016-11-16T14:16:05.470Z,72.06
2016-11-16T14:17:15.439Z,71.86
2016-11-16T14:18:25.416Z,71.86
2016-11-16T14:19:35.094Z,72.34
2016-11-16T14:20:45.056Z,71.96
2016-11-16T14:21:55.019Z,72.06
2016-11-16T14:23:05.288Z,72.34
2016-11-16T14:24:14.648Z,72.34
2016-11-16T14:25:24.925Z,72.06
2016-11-16T14:26:35.743Z,72.15
2016-11-16T14:27:46.031Z,72.44
2016-11-16T14:28:56.026Z,72.34
2016-11-16T14:30:06.002Z,72.25
2016-11-16T14:31:15.972Z,72.06
2016-11-16T14:32:26.265Z,72.15
2016-11-16T14:33:36.232Z,72.15
2016-11-16T14:34:46.200Z,72.25
2016-11-16T14:35:56.197Z,72.15
2016-11-16T14:37:06.483Z,72.34
2016-11-16T14:38:16.454Z,72.34
2016-11-16T14:39:26.414Z,72.34
2016-11-16T14:40:36.378Z,72.15
2016-11-16T14:41:46.660Z,72.06
2016-11-16T14:42:56.636Z,72.15
2016-11-16T14:44:06.928Z,72.06
2016-11-16T14:45:16.886Z,72.15
2016-11-16T14:46:26.249Z,72.63
2016-11-16T14:47:36.540Z,72.06
2016-11-16T14:48:46.509Z,71.86
2016-11-16T14:49:56.796Z,72.06
2016-11-16T14:51:07.064Z,71.96
2016-11-16T14:52:17.065Z,71.96
2016-11-16T14:53:27.340Z,72.06
2016-11-16T14:54:37.615Z,72.06
2016-11-16T14:55:47.984Z,72.72
2016-11-16T14:56:58.646Z,72.63
2016-11-16T14:58:08.320Z,71.96
2016-11-16T14:59:18.663Z,72.15
2016-11-16T15:00:28.974Z,71.96
2016-11-16T15:01:39.365Z,71.96
2016-11-16T15:02:49.667Z,72.91
2016-11-16T15:03:59.969Z,72.91
2016-11-16T15:05:10.068Z,71.96
2016-11-16T15:06:20.269Z,72.63
2016-11-16T15:07:30.574Z,72.63
2016-11-16T15:08:40.624Z,72.72
2016-11-16T15:09:51.205Z,72.06
2016-11-16T15:11:02.282Z,72.53
2016-11-16T15:12:12.302Z,72.81
2016-11-16T15:13:22.646Z,73
2016-11-16T15:14:32.652Z,72.63
2016-11-16T15:15:42.951Z,72.63
2016-11-16T15:16:52.932Z,72.81
2016-11-16T15:18:03.246Z,72.72
2016-11-16T15:19:13.219Z,72.91
2016-11-16T15:20:23.329Z,72.91
2016-11-16T15:21:33.341Z,73
2016-11-16T15:22:43.095Z,72.81
2016-11-16T15:23:53.181Z,72.72
2016-11-16T15:25:03.333Z,72.63
2016-11-16T15:26:13.724Z,72.72
2016-11-16T15:27:23.447Z,72.72
2016-11-16T15:28:33.767Z,72.81
2016-11-16T15:29:43.765Z,72.81
2016-11-16T15:30:53.798Z,72.91
2016-11-16T15:32:03.246Z,72.91
2016-11-16T15:33:13.222Z,72.63
2016-11-16T15:34:23.525Z,72.68
2016-11-16T15:35:34.001Z,72.78
2016-11-16T15:36:44.049Z,72.78
2016-11-16T15:37:54.455Z,72.72
2016-11-16T15:39:04.467Z,72.68